createdAt,value
2022-08-03T00:00:38.202Z,22.44
2022-08-03T00:03:05.672Z,22.54
2022-08-03T00:05:33.560Z,22.40
2022-08-03T00:08:01.637Z,22.08
2022-08-03T00:10:30.157Z,22.00
2022-08-03T00:12:57.547Z,22.34
2022-08-03T00:15:27.447Z,22.11
2022-08-03T00:17:54.642Z,21.84
2022-08-03T00:20:22.491Z,21.88
2022-08-03T00:22:51.440Z,21.91
2022-08-03T00:25:19.150Z,22.02
2022-08-03T00:27:48.369Z,22.25
2022-08-03T00:30:18.177Z,22.21
2022-08-03T00:32:45.717Z,22.13
2022-08-03T00:35:26.640Z,22.54
2022-08-03T00:38:01.126Z,22.11
2022-08-03T00:40:29.365Z,22.09
2022-08-03T00:43:04.344Z,21.73
2022-08-03T00:45:36.233Z,22.26
2022-08-03T00:48:07.146Z,22.09
2022-08-03T00:50:59.990Z,22.01
2022-08-03T00:53:27.963Z,21.79
2022-08-03T00:55:55.378Z,21.61
2022-08-03T00:58:24.150Z,21.64
2022-08-03T01:02:12.301Z,21.63
2022-08-03T01:04:39.645Z,21.69
2022-08-03T01:08:22.607Z,21.70
2022-08-03T01:12:07.613Z,21.74
2022-08-03T01:14:50.812Z,21.56
2022-08-03T01:18:33.671Z,21.87
2022-08-03T01:21:12.594Z,21.82
2022-08-03T01:24:56.922Z,21.88
2022-08-03T01:27:56.888Z,21.47
2022-08-03T01:30:33.866Z,21.44
2022-08-03T01:34:20.104Z,21.64
2022-08-03T01:36:57.039Z,21.43
2022-08-03T01:39:26.508Z,21.63
2022-08-03T01:42:06.014Z,21.78
2022-08-03T01:45:48.707Z,21.63
2022-08-03T01:49:31.199Z,21.43
2022-08-03T01:52:04.562Z,21.34
2022-08-03T01:55:05.901Z,21.51
2022-08-03T01:58:04.843Z,21.62
2022-08-03T02:00:27.378Z,21.48
2022-08-03T02:02:58.837Z,21.41
2022-08-03T02:05:30.021Z,21.33
2022-08-03T02:07:58.635Z,21.13
2022-08-03T02:10:35.116Z,21.38
2022-08-03T02:13:12.341Z,20.82
2022-08-03T02:15:41.997Z,21.01
2022-08-03T02:18:11.284Z,20.88
2022-08-03T02:20:47.631Z,20.83
2022-08-03T02:23:18.705Z,20.80
2022-08-03T02:25:54.352Z,21.08
2022-08-03T02:28:30.522Z,21.15
2022-08-03T02:31:03.333Z,20.94
2022-08-03T02:33:49.531Z,20.83
2022-08-03T02:36:25.749Z,20.81
2022-08-03T02:38:59.785Z,20.98
2022-08-03T02:41:48.929Z,20.83
2022-08-03T02:44:25.705Z,20.90
2022-08-03T02:47:03.811Z,21.09
2022-08-03T02:49:40.551Z,20.83
2022-08-03T02:52:23.819Z,20.55
2022-08-03T02:54:59.753Z,20.63
2022-08-03T02:57:31.715Z,20.52
2022-08-03T03:00:07.221Z,20.49
2022-08-03T03:02:37.028Z,20.82
2022-08-03T03:05:55.015Z,21.12
2022-08-03T03:07:54.745Z,20.99
2022-08-03T03:10:24.873Z,20.79
2022-08-03T03:12:57.788Z,20.39
2022-08-03T03:15:30.704Z,20.52
2022-08-03T03:18:00.352Z,20.44
2022-08-03T03:20:30.706Z,20.63
2022-08-03T03:23:02.692Z,20.84
2022-08-03T03:25:35.864Z,20.82
2022-08-03T03:28:06.423Z,20.82
2022-08-03T03:30:35.133Z,20.61
2022-08-03T03:33:05.874Z,20.41
2022-08-03T03:35:38.803Z,20.49
2022-08-03T03:38:07.442Z,20.48
2022-08-03T03:40:39.468Z,20.63
2022-08-03T03:43:12.985Z,20.52
2022-08-03T03:45:44.082Z,20.55
2022-08-03T03:48:14.036Z,20.37
2022-08-03T03:50:41.817Z,20.19
2022-08-03T03:53:13.691Z,20.54
2022-08-03T03:56:02.208Z,20.38
2022-08-03T03:58:30.466Z,20.33
2022-08-03T04:01:01.632Z,20.47
2022-08-03T04:03:29.472Z,20.57
2022-08-03T04:06:16.604Z,20.41
2022-08-03T04:09:19.028Z,20.54
2022-08-03T04:11:55.558Z,20.38
2022-08-03T04:14:35.459Z,20.38
2022-08-03T04:17:07.677Z,20.71
2022-08-03T04:19:43.969Z,20.81
2022-08-03T04:22:26.648Z,20.67
2022-08-03T04:25:06.187Z,20.69
2022-08-03T04:27:41.712Z,20.80
2022-08-03T04:30:10.821Z,20.73
2022-08-03T04:32:45.851Z,20.64
2022-08-03T04:35:13.607Z,20.56
2022-08-03T04:37:49.805Z,20.77
2022-08-03T04:40:35.076Z,20.76
2022-08-03T04:43:04.909Z,21.09
2022-08-03T04:45:35.299Z,21.92
2022-08-03T04:48:04.988Z,23.34
2022-08-03T04:50:33.773Z,24.65
2022-08-03T04:53:07.651Z,25.64
2022-08-03T04:55:36.564Z,26.35
2022-08-03T04:58:04.956Z,26.77
2022-08-03T05:00:33.011Z,27.37
2022-08-03T05:03:00.476Z,27.87
2022-08-03T05:05:48.799Z,29.14
2022-08-03T05:08:27.850Z,29.87
2022-08-03T05:10:59.385Z,30.31
2022-08-03T05:13:27.106Z,31.34
2022-08-03T05:15:54.737Z,32.36
2022-08-03T05:18:25.046Z,32.82
2022-08-03T05:20:52.384Z,33.30
2022-08-03T05:23:20.009Z,33.36
2022-08-03T05:25:50.064Z,33.51
2022-08-03T05:28:17.975Z,32.87
2022-08-03T05:30:45.469Z,32.61
2022-08-03T05:33:15.781Z,32.79
2022-08-03T05:35:56.016Z,33.24
2022-08-03T05:38:34.350Z,34.14
2022-08-03T05:41:21.060Z,34.63
2022-08-03T05:43:54.838Z,34.56
2022-08-03T05:46:25.272Z,34.51
2022-08-03T05:48:52.893Z,34.84
2022-08-03T05:51:25.658Z,34.74
2022-08-03T05:53:52.886Z,35.53
2022-08-03T05:56:27.686Z,36.87
2022-08-03T05:58:55.198Z,37.17
2022-08-03T06:01:23.024Z,36.68
2022-08-03T06:03:52.189Z,34.75
2022-08-03T06:06:20.055Z,34.49
2022-08-03T06:08:48.778Z,34.64
2022-08-03T06:11:16.788Z,35.64
2022-08-03T06:13:45.618Z,36.33
2022-08-03T06:16:12.990Z,35.41
2022-08-03T06:18:44.225Z,35.02
2022-08-03T06:21:15.442Z,35.39
2022-08-03T06:23:54.764Z,36.24
2022-08-03T06:26:26.258Z,36.32
2022-08-03T06:28:55.131Z,36.87
2022-08-03T06:31:33.254Z,38.23
2022-08-03T06:34:34.303Z,38.29
2022-08-03T06:37:01.785Z,39.18
2022-08-03T06:39:29.548Z,39.53
2022-08-03T06:41:59.877Z,39.38
2022-08-03T06:44:27.457Z,39.34
2022-08-03T06:46:55.837Z,39.52
2022-08-03T06:49:23.409Z,39.18
2022-08-03T06:52:03.330Z,40.26
2022-08-03T06:54:34.166Z,41.07
2022-08-03T06:57:01.516Z,42.00
2022-08-03T07:00:07.870Z,43.51
2022-08-03T07:02:20.406Z,44.39
2022-08-03T07:04:49.695Z,44.04
2022-08-03T07:07:17.773Z,43.54
2022-08-03T07:09:57.647Z,42.94
2022-08-03T07:12:30.536Z,42.01
2022-08-03T07:15:03.448Z,42.44
2022-08-03T07:17:35.759Z,42.59
2022-08-03T07:20:10.463Z,43.13
2022-08-03T07:22:37.846Z,43.77
2022-08-03T07:25:07.217Z,44.97
2022-08-03T07:27:34.718Z,46.36
2022-08-03T07:30:02.984Z,46.27
2022-08-03T07:32:31.510Z,47.15
2022-08-03T07:35:01.261Z,45.58
2022-08-03T07:37:56.108Z,46.25
2022-08-03T07:40:28.189Z,46.85
2022-08-03T07:43:00.523Z,48.17
2022-08-03T07:45:28.129Z,49.05
2022-08-03T07:47:55.537Z,49.64
2022-08-03T07:50:23.468Z,50.38
2022-08-03T07:52:56.046Z,49.57
2022-08-03T07:55:25.927Z,49.29
2022-08-03T07:58:12.279Z,50.10
2022-08-03T08:00:39.831Z,48.64
2022-08-03T08:03:07.236Z,50.18
2022-08-03T08:05:35.076Z,50.45
2022-08-03T08:26:39.422Z,52.01
2022-08-03T08:29:08.147Z,51.62
2022-08-03T08:31:36.381Z,53.45
2022-08-03T08:34:11.210Z,53.75
2022-08-03T08:36:39.790Z,54.79
2022-08-03T08:40:24.269Z,53.00
2022-08-03T08:44:10.280Z,54.79
2022-08-03T08:47:55.745Z,55.87
2022-08-03T08:50:28.346Z,56.55
2022-08-03T08:54:11.982Z,56.75
2022-08-03T08:56:43.307Z,56.93
2022-08-03T08:59:11.662Z,57.31
2022-08-03T09:01:45.735Z,56.96
2022-08-03T09:05:55.060Z,55.95
2022-08-03T09:08:26.372Z,55.40
2022-08-03T09:12:37.469Z,55.60
2022-08-03T09:15:36.031Z,57.10
2022-08-03T09:18:06.319Z,57.79
2022-08-03T09:21:49.452Z,57.80
2022-08-03T09:25:32.148Z,58.04
2022-08-03T09:29:15.592Z,58.40
2022-08-03T09:31:50.053Z,58.75
2022-08-03T09:35:53.041Z,58.79
2022-08-03T09:38:28.639Z,58.07
